createdAt,value
2023-04-22T00:01:36.437Z,100.00
2023-04-22T00:04:04.425Z,100.00
2023-04-22T00:06:32.687Z,100.00
2023-04-22T00:09:00.685Z,100.00
2023-04-22T00:11:30.018Z,100.00
2023-04-22T00:13:57.944Z,100.00
2023-04-22T00:16:26.458Z,100.00
2023-04-22T00:18:54.595Z,100.00
2023-04-22T00:21:22.495Z,100.00
2023-04-22T00:23:50.481Z,100.00
2023-04-22T00:26:18.438Z,100.00
2023-04-22T00:28:47.795Z,100.00
2023-04-22T00:31:15.813Z,100.00
2023-04-22T00:33:43.775Z,100.00
2023-04-22T00:36:11.810Z,100.00
2023-04-22T00:38:40.046Z,100.00
2023-04-22T00:41:09.386Z,100.00
2023-04-22T00:43:37.334Z,100.00
2023-04-22T00:46:07.475Z,100.00
2023-04-22T00:48:36.880Z,100.00
2023-04-22T00:51:05.055Z,100.00
2023-04-22T00:53:33.217Z,100.00
2023-04-22T00:56:01.169Z,100.00
2023-04-22T00:58:30.647Z,100.00
2023-04-22T01:00:59.342Z,100.00
2023-04-22T01:03:30.927Z,100.00
2023-04-22T01:05:59.304Z,100.00
2023-04-22T01:08:30.784Z,100.00
2023-04-22T01:10:58.861Z,100.00
2023-04-22T01:13:26.884Z,100.00
2023-04-22T01:15:55.825Z,100.00
2023-04-22T01:18:23.985Z,100.00
2023-04-22T01:20:53.380Z,100.00
2023-04-22T01:23:23.502Z,100.00
2023-04-22T01:25:51.454Z,100.00
2023-04-22T01:28:19.396Z,100.00
2023-04-22T01:30:47.473Z,100.00
2023-04-22T01:33:16.562Z,100.00
2023-04-22T01:35:44.672Z,100.00
2023-04-22T01:38:14.062Z,100.00
2023-04-22T01:40:43.359Z,100.00
2023-04-22T01:43:11.279Z,100.00
2023-04-22T01:45:39.273Z,100.00
2023-04-22T01:48:07.981Z,100.00
2023-04-22T01:50:36.096Z,100.00
2023-04-22T01:53:04.197Z,100.00
2023-04-22T01:55:36.087Z,100.00
2023-04-22T01:58:06.414Z,100.00
2023-04-22T02:00:34.521Z,100.00
2023-04-22T02:03:02.535Z,100.00
2023-04-22T02:05:30.656Z,100.00
2023-04-22T02:07:58.982Z,100.00
2023-04-22T02:10:26.935Z,100.00
2023-04-22T02:12:54.960Z,100.00
2023-04-22T02:15:24.261Z,100.00
2023-04-22T02:17:53.107Z,100.00
2023-04-22T02:20:21.040Z,100.00
2023-04-22T02:22:50.709Z,100.00
2023-04-22T02:25:19.164Z,100.00
2023-04-22T02:27:47.098Z,100.00
2023-04-22T02:30:15.137Z,100.00
2023-04-22T02:32:44.408Z,100.00
2023-04-22T02:35:12.513Z,100.00
2023-04-22T02:37:40.640Z,100.00
2023-04-22T02:40:09.828Z,100.00
2023-04-22T02:42:37.719Z,100.00
2023-04-22T02:45:06.701Z,100.00
2023-04-22T02:47:34.681Z,100.00
2023-04-22T02:50:04.000Z,100.00
2023-04-22T02:52:32.017Z,100.00
2023-04-22T02:54:59.983Z,100.00
2023-04-22T02:57:27.974Z,100.00
2023-04-22T02:59:57.080Z,100.00
2023-04-22T03:02:25.209Z,100.00
2023-04-22T03:04:54.470Z,100.00
2023-04-22T03:07:23.796Z,100.00
2023-04-22T03:09:52.774Z,100.00
2023-04-22T03:12:20.957Z,100.00
2023-04-22T03:14:48.970Z,100.00
2023-04-22T03:17:16.969Z,100.00
2023-04-22T03:19:44.940Z,100.00
2023-04-22T03:22:12.823Z,100.00
2023-04-22T03:24:42.053Z,100.00
2023-04-22T03:27:11.605Z,100.00
2023-04-22T03:29:39.676Z,100.00
2023-04-22T03:32:07.901Z,100.00
2023-04-22T03:34:37.260Z,100.00
2023-04-22T03:37:05.507Z,100.00
2023-04-22T03:39:33.402Z,100.00
2023-04-22T03:42:02.731Z,100.00
2023-04-22T03:44:30.653Z,100.00
2023-04-22T03:46:58.562Z,100.00
2023-04-22T03:49:27.208Z,100.00
2023-04-22T03:51:55.011Z,100.00
2023-04-22T03:54:22.905Z,100.00
2023-04-22T03:56:50.861Z,100.00
2023-04-22T03:59:22.573Z,100.00
2023-04-22T04:01:52.890Z,100.00
2023-04-22T04:04:21.000Z,100.00
2023-04-22T04:06:49.180Z,100.00
2023-04-22T04:09:17.224Z,100.00
2023-04-22T04:11:45.331Z,100.00
2023-04-22T04:14:16.417Z,100.00
2023-04-22T04:16:46.194Z,100.00
2023-04-22T04:19:14.188Z,100.00
2023-04-22T04:21:42.325Z,100.00
2023-04-22T04:24:13.191Z,100.00
2023-04-22T04:26:41.573Z,100.00
2023-04-22T04:29:09.601Z,100.00
2023-04-22T04:31:37.573Z,100.00
2023-04-22T04:34:07.379Z,100.00
2023-04-22T04:36:35.519Z,100.00
2023-04-22T04:39:04.247Z,100.00
2023-04-22T04:41:33.300Z,100.00
2023-04-22T04:44:01.588Z,100.00
2023-04-22T04:46:31.497Z,100.00
2023-04-22T04:49:00.215Z,100.00
2023-04-22T04:51:29.490Z,100.00
2023-04-22T04:53:57.445Z,100.00
2023-04-22T04:56:25.501Z,100.00
2023-04-22T04:58:53.480Z,100.00
2023-04-22T05:01:21.485Z,100.00
2023-04-22T05:03:49.724Z,100.00
2023-04-22T05:06:17.799Z,100.00
2023-04-22T05:08:47.380Z,100.00
2023-04-22T05:11:15.372Z,100.00
2023-04-22T05:13:43.377Z,100.00
2023-04-22T05:16:11.381Z,100.00
2023-04-22T05:18:40.729Z,100.00
2023-04-22T05:21:08.745Z,100.00
2023-04-22T05:23:36.679Z,100.00
2023-04-22T05:26:06.037Z,100.00
2023-04-22T05:28:33.998Z,100.00
2023-04-22T05:31:01.952Z,100.00
2023-04-22T05:33:29.820Z,100.00
2023-04-22T05:35:57.846Z,100.00
2023-04-22T05:38:25.846Z,100.00
2023-04-22T05:40:53.720Z,100.00
2023-04-22T05:43:23.064Z,100.00
2023-04-22T05:45:51.038Z,100.00
2023-04-22T05:48:19.084Z,100.00
2023-04-22T05:50:47.234Z,100.00
2023-04-22T05:53:15.517Z,100.00
2023-04-22T05:55:43.407Z,100.00
2023-04-22T05:58:11.518Z,100.00
2023-04-22T06:00:41.187Z,100.00
2023-04-22T06:03:09.297Z,100.00
2023-04-22T06:05:37.490Z,100.00
2023-04-22T06:08:05.603Z,100.00
2023-04-22T06:10:33.581Z,100.00
2023-04-22T06:13:01.490Z,100.00
2023-04-22T06:15:29.951Z,100.00
2023-04-22T06:17:59.377Z,100.00
2023-04-22T06:20:27.379Z,100.00
2023-04-22T06:22:55.317Z,100.00
2023-04-22T06:25:23.650Z,100.00
2023-04-22T06:27:51.666Z,100.00
2023-04-22T06:30:19.784Z,100.00
2023-04-22T06:32:47.706Z,100.00
2023-04-22T06:35:17.221Z,100.00
2023-04-22T06:37:45.390Z,100.00
2023-04-22T06:40:13.939Z,100.00
2023-04-22T06:42:42.311Z,100.00
2023-04-22T06:45:13.155Z,100.00
2023-04-22T06:47:41.352Z,100.00
2023-04-22T06:50:10.683Z,100.00
2023-04-22T06:52:41.048Z,100.00
2023-04-22T06:55:09.499Z,100.00
2023-04-22T06:57:37.631Z,100.00
2023-04-22T07:00:06.328Z,100.00
2023-04-22T07:02:34.304Z,100.00
2023-04-22T07:05:02.294Z,100.00
2023-04-22T07:07:30.503Z,100.00
2023-04-22T07:09:59.776Z,100.00
2023-04-22T07:12:27.834Z,100.00
2023-04-22T07:14:56.282Z,100.00
2023-04-22T07:17:24.593Z,100.00
2023-04-22T07:19:53.526Z,100.00
2023-04-22T07:22:21.612Z,100.00
2023-04-22T07:24:49.608Z,100.00
2023-04-22T07:27:19.092Z,100.00
2023-04-22T07:29:47.196Z,100.00
2023-04-22T07:32:17.293Z,100.00
2023-04-22T07:34:45.723Z,100.00
2023-04-22T07:37:13.703Z,100.00
2023-04-22T07:39:41.936Z,100.00
2023-04-22T07:42:10.146Z,100.00
2023-04-22T07:44:39.711Z,100.00
2023-04-22T07:47:08.751Z,100.00
2023-04-22T07:49:36.704Z,100.00
2023-04-22T07:52:06.062Z,100.00
2023-04-22T07:54:33.989Z,100.00
2023-04-22T07:57:01.838Z,100.00
2023-04-22T07:59:29.729Z,100.00
2023-04-22T08:01:59.141Z,100.00
2023-04-22T08:04:27.290Z,100.00
2023-04-22T08:06:56.374Z,100.00
2023-04-22T08:09:24.613Z,100.00
2023-04-22T08:11:53.798Z,100.00
2023-04-22T08:14:21.743Z,100.00
2023-04-22T08:16:49.779Z,100.00
2023-04-22T08:19:20.071Z,100.00
2023-04-22T08:21:48.556Z,100.00
2023-04-22T08:24:16.544Z,100.00
2023-04-22T08:26:44.507Z,100.00
2023-04-22T08:29:12.606Z,100.00
2023-04-22T08:31:40.887Z,100.00
2023-04-22T08:34:08.847Z,100.00
2023-04-22T08:36:38.142Z,100.00
2023-04-22T08:39:06.023Z,100.00
2023-04-22T08:41:35.889Z,100.00
2023-04-22T08:44:04.290Z,100.00
2023-04-22T08:46:32.440Z,100.00
2023-04-22T08:49:03.899Z,100.00
2023-04-22T08:51:33.614Z,100.00
2023-04-22T08:54:02.947Z,100.00
2023-04-22T08:56:32.586Z,100.00
2023-04-22T08:59:00.910Z,100.00
2023-04-22T09:01:32.397Z,100.00
2023-04-22T09:04:01.248Z,100.00
2023-04-22T09:06:29.394Z,99.91
2023-04-22T09:08:59.229Z,92.51
2023-04-22T09:11:29.912Z,94.43
2023-04-22T09:13:57.923Z,93.71
2023-04-22T09:16:26.011Z,87.81
2023-04-22T09:18:53.950Z,87.99
2023-04-22T09:21:22.214Z,87.94
2023-04-22T09:23:51.803Z,88.96
2023-04-22T09:26:20.978Z,89.25
2023-04-22T09:28:55.941Z,77.02
2023-04-22T09:31:24.339Z,78.19
2023-04-22T09:33:54.770Z,76.20
2023-04-22T09:36:27.876Z,73.73
2023-04-22T09:38:59.518Z,75.98
2023-04-22T09:41:30.775Z,74.05
2023-04-22T09:44:01.625Z,73.78
2023-04-22T09:46:30.890Z,69.48
2023-04-22T09:49:00.044Z,65.43
2023-04-22T09:51:29.292Z,67.21
2023-04-22T09:54:01.832Z,63.72
2023-04-22T09:56:48.375Z,64.56
2023-04-22T09:59:22.217Z,70.71
2023-04-22T10:01:51.084Z,75.96
2023-04-22T10:04:21.536Z,70.52
2023-04-22T10:06:50.225Z,70.22
2023-04-22T10:09:21.430Z,69.56
2023-04-22T10:11:50.766Z,68.14
2023-04-22T10:14:20.059Z,66.73
2023-04-22T10:16:49.174Z,66.41
2023-04-22T10:19:21.972Z,69.02
2023-04-22T10:21:54.711Z,71.54
2023-04-22T10:24:22.722Z,69.41
2023-04-22T10:26:53.080Z,66.85
2023-04-22T10:29:23.658Z,64.57
2023-04-22T10:31:58.403Z,62.97
2023-04-22T10:34:26.601Z,62.56
2023-04-22T10:37:02.003Z,61.40
2023-04-22T10:39:30.808Z,59.38
2023-04-22T10:42:06.835Z,58.21
2023-04-22T10:44:55.285Z,55.54
2023-04-22T10:47:27.528Z,53.99
2023-04-22T10:50:11.501Z,52.93
2023-04-22T10:52:40.165Z,52.46
2023-04-22T10:55:09.091Z,51.98
2023-04-22T10:57:41.827Z,51.15
2023-04-22T11:00:23.695Z,49.85
2023-04-22T11:03:07.596Z,50.21
2023-04-22T11:05:35.948Z,49.45
2023-04-22T11:08:05.338Z,49.01
2023-04-22T11:10:43.073Z,48.31
2023-04-22T11:13:14.047Z,48.59
2023-04-22T11:15:44.836Z,49.20
2023-04-22T11:18:19.451Z,49.20
2023-04-22T11:20:49.463Z,50.18
2023-04-22T11:23:26.494Z,51.61
2023-04-22T11:25:58.979Z,54.11
2023-04-22T11:28:27.323Z,53.44
2023-04-22T11:31:03.108Z,54.15
2023-04-22T11:33:31.043Z,54.78
2023-04-22T11:35:58.973Z,54.85
2023-04-22T11:38:26.842Z,55.13
2023-04-22T11:40:57.829Z,56.02
2023-04-22T11:43:26.057Z,55.54
2023-04-22T11:45:58.493Z,54.82
2023-04-22T11:48:26.810Z,54.83
2023-04-22T11:51:09.800Z,55.50
2023-04-22T11:53:39.624Z,55.38
2023-04-22T11:56:07.582Z,55.96
2023-04-22T11:58:40.281Z,56.01
2023-04-22T12:01:14.792Z,55.68
2023-04-22T12:03:43.102Z,54.87
2023-04-22T12:06:11.088Z,54.89
2023-04-22T12:08:42.432Z,54.34
2023-04-22T12:11:12.148Z,55.29
2023-04-22T12:13:43.679Z,54.88
2023-04-22T12:16:14.765Z,56.32
2023-04-22T12:18:51.037Z,55.45
2023-04-22T12:21:20.629Z,54.77
2023-04-22T12:23:50.335Z,55.49
2023-04-22T12:26:19.692Z,55.11
2023-04-22T12:28:48.024Z,54.55
2023-04-22T12:31:19.171Z,55.18
2023-04-22T12:33:47.943Z,54.93
2023-04-22T12:36:16.159Z,54.48
2023-04-22T12:38:44.103Z,54.30
2023-04-22T12:41:12.077Z,53.77
2023-04-22T12:43:40.132Z,54.05
2023-04-22T12:46:09.242Z,53.83
2023-04-22T12:48:38.722Z,54.23
2023-04-22T12:51:07.746Z,52.98
2023-04-22T12:53:35.945Z,52.60
2023-04-22T12:56:04.259Z,52.81
2023-04-22T12:58:32.288Z,52.24
2023-04-22T13:01:00.196Z,51.46
2023-04-22T13:03:28.481Z,52.57
2023-04-22T13:05:58.077Z,52.42
2023-04-22T13:08:26.210Z,52.58
2023-04-22T13:10:54.214Z,52.13
2023-04-22T13:13:22.182Z,52.19
2023-04-22T13:15:53.301Z,51.83
2023-04-22T13:18:22.530Z,50.43
2023-04-22T13:20:51.278Z,50.92
2023-04-22T13:23:21.933Z,51.32
2023-04-22T13:25:50.426Z,51.41
2023-04-22T13:28:18.340Z,50.68
2023-04-22T13:30:46.336Z,50.42
2023-04-22T13:33:14.411Z,50.24
2023-04-22T13:35:43.007Z,49.72
2023-04-22T13:38:10.987Z,50.08
2023-04-22T13:40:40.339Z,49.12
2023-04-22T13:43:10.129Z,49.31
2023-04-22T13:45:38.127Z,49.42
2023-04-22T13:48:07.359Z,48.89
2023-04-22T13:50:35.416Z,48.10
2023-04-22T13:53:04.873Z,48.08
2023-04-22T13:55:34.372Z,48.30
2023-04-22T13:58:05.481Z,48.34
2023-04-22T14:00:33.690Z,50.31
2023-04-22T14:03:02.547Z,49.74
2023-04-22T14:05:30.912Z,49.28
2023-04-22T14:08:01.159Z,49.36
2023-04-22T14:10:29.256Z,50.48
2023-04-22T14:12:57.296Z,50.69
2023-04-22T14:15:26.948Z,51.86
2023-04-22T14:17:54.886Z,51.53
2023-04-22T14:20:25.159Z,50.61
2023-04-22T14:22:53.208Z,50.07
2023-04-22T14:25:21.335Z,49.63
2023-04-22T14:27:49.315Z,49.37
2023-04-22T14:30:18.017Z,50.08
2023-04-22T14:32:47.429Z,50.13
2023-04-22T14:35:15.421Z,51.00
2023-04-22T14:37:45.131Z,50.41
2023-04-22T14:40:13.463Z,50.08
2023-04-22T14:42:47.962Z,51.14
2023-04-22T14:45:16.028Z,51.59
2023-04-22T14:47:46.260Z,51.51
2023-04-22T14:50:15.833Z,50.71
2023-04-22T14:52:46.173Z,50.54
2023-04-22T14:55:23.215Z,50.39
2023-04-22T14:57:56.909Z,49.73
2023-04-22T15:00:25.408Z,49.30
2023-04-22T15:03:00.061Z,48.76
2023-04-22T15:05:29.877Z,48.79
2023-04-22T15:07:58.773Z,48.03
2023-04-22T15:10:29.760Z,48.71
2023-04-22T15:13:01.567Z,49.85
2023-04-22T15:15:33.583Z,50.78
2023-04-22T15:18:05.470Z,53.84
2023-04-22T15:20:37.557Z,55.67
2023-04-22T15:23:08.514Z,56.93
2023-04-22T15:25:41.833Z,58.24
2023-04-22T15:28:10.048Z,60.03
2023-04-22T15:30:38.188Z,61.06
2023-04-22T15:33:06.245Z,61.53
2023-04-22T15:35:37.748Z,61.34
2023-04-22T15:38:09.214Z,61.39
2023-04-22T15:40:37.437Z,60.06
2023-04-22T15:43:05.544Z,59.28
2023-04-22T15:45:40.221Z,58.96
2023-04-22T15:48:08.285Z,58.01
2023-04-22T15:50:38.850Z,55.63
2023-04-22T15:53:08.455Z,55.18
2023-04-22T15:55:36.555Z,54.28
2023-04-22T15:58:04.999Z,54.23
2023-04-22T16:00:43.891Z,54.52
2023-04-22T16:03:12.002Z,55.08
2023-04-22T16:05:44.510Z,56.33
2023-04-22T16:08:13.474Z,57.50
2023-04-22T16:10:45.751Z,58.02
2023-04-22T16:13:14.245Z,58.67
2023-04-22T16:15:42.624Z,58.82
2023-04-22T16:18:11.021Z,58.89
2023-04-22T16:20:39.444Z,57.66
2023-04-22T16:23:09.527Z,58.09
2023-04-22T16:25:37.719Z,57.89
2023-04-22T16:28:08.920Z,57.55
2023-04-22T16:30:37.578Z,57.18
2023-04-22T16:33:05.646Z,57.51
2023-04-22T16:35:33.841Z,57.17
2023-04-22T16:38:04.797Z,57.57
2023-04-22T16:40:47.964Z,58.20
2023-04-22T16:43:18.729Z,59.25
2023-04-22T16:45:49.704Z,60.61
2023-04-22T16:48:30.827Z,62.33
2023-04-22T16:50:58.814Z,65.71
2023-04-22T16:53:26.808Z,70.07
2023-04-22T16:55:56.673Z,74.47
2023-04-22T16:58:24.928Z,81.35
2023-04-22T17:00:52.868Z,89.00
2023-04-22T17:03:21.336Z,94.91
2023-04-22T17:05:49.901Z,99.77
2023-04-22T17:08:17.942Z,100.00
2023-04-22T17:10:46.278Z,100.00
2023-04-22T17:13:16.148Z,100.00
2023-04-22T17:15:44.070Z,100.00
2023-04-22T17:18:14.290Z,100.00
2023-04-22T17:20:42.713Z,100.00
2023-04-22T17:23:10.613Z,100.00
2023-04-22T17:25:38.813Z,100.00
2023-04-22T17:28:06.788Z,100.00
2023-04-22T17:30:36.160Z,100.00
2023-04-22T17:33:06.007Z,100.00
2023-04-22T17:35:33.993Z,100.00
2023-04-22T17:38:01.974Z,100.00
2023-04-22T17:40:30.092Z,100.00
2023-04-22T17:42:57.989Z,100.00
2023-04-22T17:45:26.048Z,100.00
2023-04-22T17:47:55.423Z,100.00
2023-04-22T17:50:25.648Z,100.00
2023-04-22T17:52:57.389Z,100.00
2023-04-22T17:55:25.295Z,100.00
2023-04-22T17:57:53.223Z,100.00
2023-04-22T18:00:22.089Z,100.00
2023-04-22T18:02:50.253Z,100.00
2023-04-22T18:05:19.756Z,100.00
2023-04-22T18:07:47.776Z,100.00
2023-04-22T18:10:15.783Z,100.00
2023-04-22T18:12:43.864Z,100.00
2023-04-22T18:15:12.028Z,100.00
2023-04-22T18:17:39.975Z,100.00
2023-04-22T18:20:17.272Z,100.00
2023-04-22T18:22:49.801Z,100.00
2023-04-22T18:25:17.802Z,100.00
2023-04-22T18:27:45.828Z,100.00
2023-04-22T18:30:14.181Z,100.00
2023-04-22T18:32:42.340Z,100.00
2023-04-22T18:35:11.099Z,100.00
2023-04-22T18:37:39.065Z,100.00
2023-04-22T18:40:10.295Z,100.00
2023-04-22T18:42:38.637Z,100.00
2023-04-22T18:45:08.553Z,100.00
2023-04-22T18:47:36.529Z,100.00
2023-04-22T18:50:04.832Z,100.00
2023-04-22T18:52:33.242Z,100.00
2023-04-22T18:55:01.151Z,100.00
2023-04-22T18:57:30.697Z,100.00
2023-04-22T18:59:58.733Z,100.00
2023-04-22T19:02:26.965Z,100.00
2023-04-22T19:04:55.227Z,100.00
2023-04-22T19:07:23.176Z,100.00
2023-04-22T19:09:51.013Z,100.00
2023-04-22T19:12:19.713Z,100.00
2023-04-22T19:14:49.049Z,100.00
2023-04-22T19:17:17.240Z,100.00
2023-04-22T19:19:45.459Z,100.00
2023-04-22T19:22:13.851Z,100.00
2023-04-22T19:24:42.284Z,100.00
2023-04-22T19:27:12.485Z,100.00
2023-04-22T19:29:41.557Z,100.00
2023-04-22T19:32:12.194Z,100.00
2023-04-22T19:34:40.510Z,100.00
2023-04-22T19:37:08.633Z,100.00
2023-04-22T19:39:36.683Z,100.00
2023-04-22T19:42:05.156Z,100.00
2023-04-22T19:44:33.297Z,100.00
2023-04-22T19:47:01.370Z,100.00
2023-04-22T19:49:32.657Z,100.00
2023-04-22T19:52:03.411Z,100.00
2023-04-22T19:54:32.169Z,100.00
2023-04-22T19:57:01.762Z,100.00
2023-04-22T19:59:31.652Z,100.00
2023-04-22T20:02:00.518Z,100.00
2023-04-22T20:04:30.786Z,100.00
2023-04-22T20:07:02.594Z,100.00
2023-04-22T20:09:32.883Z,100.00
2023-04-22T20:12:04.998Z,100.00
2023-04-22T20:14:33.957Z,100.00
2023-04-22T20:17:02.366Z,100.00
2023-04-22T20:19:32.075Z,100.00
2023-04-22T20:22:01.792Z,100.00
2023-04-22T20:24:31.428Z,100.00
2023-04-22T20:26:59.464Z,100.00
2023-04-22T20:29:27.590Z,100.00
2023-04-22T20:31:56.562Z,100.00
2023-04-22T20:34:24.999Z,100.00
2023-04-22T20:36:55.029Z,100.00
2023-04-22T20:39:23.980Z,100.00
2023-04-22T20:41:56.292Z,100.00
2023-04-22T20:44:24.236Z,100.00
2023-04-22T20:46:52.209Z,100.00
2023-04-22T20:49:20.490Z,100.00
2023-04-22T20:51:48.474Z,100.00
2023-04-22T20:54:28.321Z,100.00
2023-04-22T20:56:57.939Z,100.00
2023-04-22T20:59:25.928Z,100.00
2023-04-22T21:01:54.747Z,100.00
2023-04-22T21:04:23.959Z,100.00
2023-04-22T21:06:52.831Z,100.00
2023-04-22T21:09:24.972Z,100.00
2023-04-22T21:11:54.726Z,100.00
2023-04-22T21:14:26.216Z,100.00
2023-04-22T21:17:01.344Z,100.00
2023-04-22T21:19:33.021Z,100.00
2023-04-22T21:22:05.122Z,100.00
2023-04-22T21:24:36.037Z,100.00
2023-04-22T21:27:04.410Z,100.00
2023-04-22T21:29:34.596Z,100.00
2023-04-22T21:32:09.458Z,100.00
2023-04-22T21:34:38.001Z,100.00
2023-04-22T21:37:06.893Z,100.00
2023-04-22T21:39:36.574Z,100.00
2023-04-22T21:42:08.329Z,100.00
2023-04-22T21:44:39.351Z,100.00
2023-04-22T21:47:07.443Z,100.00
2023-04-22T21:49:35.780Z,100.00
2023-04-22T21:52:03.738Z,100.00
2023-04-22T21:54:31.786Z,100.00
2023-04-22T21:57:01.456Z,100.00
2023-04-22T21:59:29.419Z,100.00
2023-04-22T22:01:57.478Z,100.00
2023-04-22T22:04:25.673Z,100.00
2023-04-22T22:06:53.729Z,100.00
2023-04-22T22:09:22.565Z,100.00
2023-04-22T22:11:50.560Z,100.00
2023-04-22T22:14:19.895Z,100.00
2023-04-22T22:16:50.010Z,100.00
2023-04-22T22:19:18.075Z,100.00
2023-04-22T22:21:45.966Z,100.00
2023-04-22T22:24:13.954Z,100.00
2023-04-22T22:26:42.937Z,100.00
2023-04-22T22:29:15.558Z,100.00
2023-04-22T22:31:46.623Z,100.00
2023-04-22T22:34:14.964Z,100.00
2023-04-22T22:36:42.873Z,100.00
2023-04-22T22:39:14.387Z,100.00
2023-04-22T22:41:43.922Z,100.00
2023-04-22T22:44:12.338Z,100.00
2023-04-22T22:46:41.380Z,100.00
2023-04-22T22:49:11.038Z,100.00
2023-04-22T22:51:39.075Z,100.00
2023-04-22T22:54:07.346Z,100.00
2023-04-22T22:56:35.299Z,100.00
2023-04-22T22:59:03.330Z,100.00
2023-04-22T23:01:31.344Z,100.00
2023-04-22T23:03:59.651Z,100.00
2023-04-22T23:06:29.074Z,100.00
2023-04-22T23:08:57.170Z,100.00
2023-04-22T23:11:26.206Z,100.00
2023-04-22T23:13:54.147Z,100.00
2023-04-22T23:16:22.857Z,100.00
2023-04-22T23:18:53.182Z,100.00
2023-04-22T23:21:22.385Z,100.00
2023-04-22T23:23:53.917Z,100.00
2023-04-22T23:26:22.359Z,100.00
2023-04-22T23:28:50.719Z,100.00
2023-04-22T23:31:20.469Z,100.00
2023-04-22T23:33:50.837Z,100.00
2023-04-22T23:36:19.562Z,100.00
2023-04-22T23:38:47.483Z,100.00
2023-04-22T23:41:16.690Z,100.00
2023-04-22T23:43:44.741Z,100.00
2023-04-22T23:46:13.339Z,100.00
2023-04-22T23:48:41.367Z,100.00
2023-04-22T23:51:09.501Z,100.00
2023-04-22T23:53:38.762Z,100.00
2023-04-22T23:56:07.554Z,100.00
2023-04-22T23:58:37.512Z,100.00
